LNI123 WILL-WIII
Flight info
| Callsign | LNI123 |
|---|---|
| Flight time | 0h 34m |
| Altitude | 15000 |
| Route | BIDOV W19 DKI |
| Aircraft | B738/M-SDE2E3FGHIRWXY/LB1 |
Departure
| Time | 2026-05-09 01:45 |
|---|---|
| Airport | Radin Inten II International Airport (WILL) |
Arrival
| Time | 2026-05-09 02:19 |
|---|---|
| Airport | Soekarno-Hatta International Airport (WIII) |
| Time | Latitude | Longitude | Altitude | Speed | Heading |
|---|---|---|---|---|---|
| 2026-05-09 01:19 | -5.24216 | 105.17642 | 236 ft | 0 kts | 231° |
| 2026-05-09 01:34 | -5.24215 | 105.17642 | 232 ft | 1 kts | 231° |
| 2026-05-09 01:34 | -5.24205 | 105.17655 | 267 ft | 3 kts | 236° |
| 2026-05-09 01:34 | -5.24195 | 105.17672 | 267 ft | 3 kts | 248° |
| 2026-05-09 01:35 | -5.24190 | 105.17691 | 267 ft | 3 kts | 272° |
| 2026-05-09 01:35 | -5.24194 | 105.17706 | 267 ft | 3 kts | 325° |
| 2026-05-09 01:35 | -5.24199 | 105.17709 | 267 ft | 0 kts | 344° |
| 2026-05-09 01:39 | -5.24178 | 105.17706 | 270 ft | 7 kts | 1° |
| 2026-05-09 01:39 | -5.24133 | 105.17742 | 271 ft | 9 kts | 49° |
| 2026-05-09 01:39 | -5.24121 | 105.17798 | 271 ft | 10 kts | 134° |
| 2026-05-09 01:40 | -5.24181 | 105.17849 | 270 ft | 14 kts | 142° |
| 2026-05-09 01:40 | -5.24268 | 105.17921 | 269 ft | 19 kts | 141° |
| 2026-05-09 01:40 | -5.24376 | 105.18013 | 269 ft | 22 kts | 139° |
| 2026-05-09 01:40 | -5.24495 | 105.18114 | 268 ft | 23 kts | 140° |
| 2026-05-09 01:41 | -5.24615 | 105.18214 | 269 ft | 22 kts | 139° |
| 2026-05-09 01:41 | -5.24730 | 105.18312 | 269 ft | 21 kts | 140° |
| 2026-05-09 01:41 | -5.24842 | 105.18408 | 270 ft | 21 kts | 140° |
| 2026-05-09 01:41 | -5.24959 | 105.18507 | 271 ft | 22 kts | 140° |
| 2026-05-09 01:42 | -5.25080 | 105.18609 | 270 ft | 23 kts | 140° |
| 2026-05-09 01:42 | -5.25198 | 105.18710 | 270 ft | 22 kts | 140° |
| 2026-05-09 01:42 | -5.25313 | 105.18807 | 268 ft | 21 kts | 140° |
| 2026-05-09 01:42 | -5.25425 | 105.18902 | 268 ft | 21 kts | 140° |
| 2026-05-09 01:43 | -5.25534 | 105.18994 | 268 ft | 20 kts | 140° |
| 2026-05-09 01:43 | -5.25594 | 105.19067 | 269 ft | 12 kts | 114° |
| 2026-05-09 01:43 | -5.25621 | 105.19102 | 270 ft | 3 kts | 162° |
| 2026-05-09 01:43 | -5.25638 | 105.19094 | 270 ft | 2 kts | 232° |
| 2026-05-09 01:44 | -5.25634 | 105.19080 | 270 ft | 2 kts | 304° |
| 2026-05-09 01:44 | -5.25626 | 105.19074 | 270 ft | 1 kts | 318° |
| 2026-05-09 01:44 | -5.25622 | 105.19070 | 270 ft | 3 kts | 317° |
| 2026-05-09 01:44 | -5.25582 | 105.19034 | 268 ft | 37 kts | 320° |
| 2026-05-09 01:45 | -5.24766 | 105.18348 | 319 ft | 182 kts | 320° |
| 2026-05-09 01:45 | -5.24095 | 105.17765 | 1084 ft | 184 kts | 319° |
| 2026-05-09 01:45 | -5.23152 | 105.16957 | 2746 ft | 183 kts | 331° |
| 2026-05-09 01:45 | -5.21406 | 105.16896 | 3774 ft | 214 kts | 26° |
| 2026-05-09 01:46 | -5.20593 | 105.17558 | 4029 ft | 235 kts | 55° |
| 2026-05-09 01:46 | -5.19928 | 105.19074 | 4933 ft | 241 kts | 69° |
| 2026-05-09 01:46 | -5.19345 | 105.20661 | 5622 ft | 244 kts | 69° |
| 2026-05-09 01:46 | -5.18731 | 105.22244 | 5947 ft | 246 kts | 68° |
| 2026-05-09 01:47 | -5.18085 | 105.23817 | 5978 ft | 243 kts | 67° |
| 2026-05-09 01:47 | -5.17413 | 105.25383 | 5987 ft | 247 kts | 66° |
| 2026-05-09 01:47 | -5.16684 | 105.27026 | 5976 ft | 267 kts | 66° |
| 2026-05-09 01:47 | -5.15913 | 105.28730 | 5993 ft | 270 kts | 65° |
| 2026-05-09 01:48 | -5.15128 | 105.30442 | 6000 ft | 270 kts | 65° |
| 2026-05-09 01:48 | -5.14340 | 105.32146 | 5995 ft | 269 kts | 65° |
| 2026-05-09 01:48 | -5.13557 | 105.33827 | 5996 ft | 269 kts | 65° |
| 2026-05-09 01:48 | -5.12763 | 105.35528 | 5992 ft | 269 kts | 65° |
| 2026-05-09 01:49 | -5.11967 | 105.37229 | 5993 ft | 269 kts | 65° |
| 2026-05-09 01:49 | -5.11169 | 105.38931 | 5994 ft | 270 kts | 65° |
| 2026-05-09 01:49 | -5.10372 | 105.40632 | 5986 ft | 270 kts | 65° |
| 2026-05-09 01:49 | -5.09834 | 105.42420 | 5978 ft | 270 kts | 86° |
| 2026-05-09 01:50 | -5.10132 | 105.44265 | 6014 ft | 273 kts | 110° |
| 2026-05-09 01:50 | -5.11181 | 105.45873 | 6660 ft | 280 kts | 132° |
| 2026-05-09 01:50 | -5.12631 | 105.47182 | 7920 ft | 281 kts | 139° |
| 2026-05-09 01:50 | -5.14154 | 105.48434 | 9108 ft | 286 kts | 139° |
| 2026-05-09 01:51 | -5.15706 | 105.49715 | 10207 ft | 292 kts | 139° |
| 2026-05-09 01:51 | -5.17323 | 105.51072 | 10814 ft | 317 kts | 139° |
| 2026-05-09 01:51 | -5.18979 | 105.52697 | 11043 ft | 348 kts | 124° |
| 2026-05-09 01:51 | -5.20015 | 105.54926 | 11724 ft | 359 kts | 107° |
| 2026-05-09 01:52 | -5.20708 | 105.57347 | 12625 ft | 364 kts | 105° |
| 2026-05-09 01:52 | -5.21368 | 105.59814 | 13540 ft | 368 kts | 104° |
| 2026-05-09 01:52 | -5.22033 | 105.62302 | 14321 ft | 368 kts | 105° |
| 2026-05-09 01:52 | -5.22705 | 105.64771 | 14712 ft | 366 kts | 105° |
| 2026-05-09 01:53 | -5.23386 | 105.67229 | 14864 ft | 367 kts | 105° |
| 2026-05-09 01:53 | -5.24087 | 105.69730 | 14907 ft | 376 kts | 105° |
| 2026-05-09 01:53 | -5.24801 | 105.72268 | 14889 ft | 379 kts | 105° |
| 2026-05-09 01:53 | -5.25516 | 105.74804 | 14896 ft | 377 kts | 106° |
| 2026-05-09 01:54 | -5.26078 | 105.77367 | 14894 ft | 377 kts | 94° |
| 2026-05-09 01:54 | -5.26126 | 105.79991 | 14914 ft | 377 kts | 90° |
| 2026-05-09 01:54 | -5.26100 | 105.82621 | 14910 ft | 377 kts | 89° |
| 2026-05-09 01:54 | -5.26066 | 105.85250 | 14903 ft | 377 kts | 89° |
| 2026-05-09 01:55 | -5.26041 | 105.87882 | 14906 ft | 378 kts | 90° |
| 2026-05-09 01:55 | -5.26025 | 105.90516 | 14908 ft | 377 kts | 90° |
| 2026-05-09 01:55 | -5.26018 | 105.93149 | 14906 ft | 377 kts | 90° |
| 2026-05-09 01:55 | -5.26016 | 105.95776 | 14918 ft | 377 kts | 90° |
| 2026-05-09 01:56 | -5.26017 | 105.98405 | 14917 ft | 377 kts | 90° |
| 2026-05-09 01:56 | -5.26018 | 106.01032 | 14917 ft | 377 kts | 90° |
| 2026-05-09 01:56 | -5.26020 | 106.03663 | 14916 ft | 377 kts | 90° |
| 2026-05-09 01:56 | -5.26022 | 106.06290 | 14911 ft | 377 kts | 90° |
| 2026-05-09 01:57 | -5.26023 | 106.08918 | 14910 ft | 377 kts | 90° |
| 2026-05-09 01:57 | -5.26024 | 106.11543 | 14910 ft | 377 kts | 90° |
| 2026-05-09 01:57 | -5.26026 | 106.14173 | 14911 ft | 377 kts | 90° |
| 2026-05-09 01:57 | -5.26027 | 106.16796 | 14910 ft | 376 kts | 90° |
| 2026-05-09 01:58 | -5.26029 | 106.19421 | 14909 ft | 376 kts | 91° |
| 2026-05-09 01:58 | -5.26408 | 106.22008 | 14893 ft | 376 kts | 109° |
| 2026-05-09 01:58 | -5.27490 | 106.24389 | 14915 ft | 376 kts | 117° |
| 2026-05-09 01:58 | -5.28704 | 106.26711 | 14903 ft | 376 kts | 118° |
| 2026-05-09 01:59 | -5.29942 | 106.29023 | 14897 ft | 376 kts | 118° |
| 2026-05-09 01:59 | -5.31179 | 106.31333 | 14898 ft | 376 kts | 118° |
| 2026-05-09 01:59 | -5.32409 | 106.33648 | 14909 ft | 376 kts | 117° |
| 2026-05-09 01:59 | -5.33632 | 106.35964 | 14905 ft | 376 kts | 117° |
| 2026-05-09 02:00 | -5.34850 | 106.38288 | 14897 ft | 376 kts | 117° |
| 2026-05-09 02:00 | -5.36063 | 106.40609 | 14914 ft | 376 kts | 117° |
| 2026-05-09 02:00 | -5.37278 | 106.42940 | 14902 ft | 376 kts | 117° |
| 2026-05-09 02:00 | -5.38473 | 106.45235 | 14901 ft | 376 kts | 117° |
| 2026-05-09 02:01 | -5.39683 | 106.47562 | 14907 ft | 376 kts | 117° |
| 2026-05-09 02:01 | -5.40907 | 106.49916 | 14898 ft | 376 kts | 117° |
| 2026-05-09 02:01 | -5.42116 | 106.52241 | 14904 ft | 375 kts | 117° |
| 2026-05-09 02:01 | -5.43307 | 106.54532 | 14899 ft | 375 kts | 117° |
| 2026-05-09 02:02 | -5.44500 | 106.56827 | 14887 ft | 363 kts | 117° |
| 2026-05-09 02:02 | -5.45638 | 106.59016 | 14883 ft | 346 kts | 117° |
| 2026-05-09 02:02 | -5.46742 | 106.61139 | 14885 ft | 341 kts | 117° |
| 2026-05-09 02:02 | -5.47838 | 106.63248 | 14906 ft | 341 kts | 117° |
| 2026-05-09 02:03 | -5.48938 | 106.65366 | 14735 ft | 344 kts | 117° |
| 2026-05-09 02:03 | -5.50034 | 106.67475 | 14480 ft | 338 kts | 117° |
| 2026-05-09 02:03 | -5.51118 | 106.69562 | 14121 ft | 335 kts | 117° |
| 2026-05-09 02:03 | -5.52185 | 106.71614 | 13767 ft | 329 kts | 117° |
| 2026-05-09 02:04 | -5.53233 | 106.73632 | 13362 ft | 324 kts | 117° |
| 2026-05-09 02:04 | -5.54266 | 106.75621 | 12962 ft | 319 kts | 117° |
| 2026-05-09 02:04 | -5.55284 | 106.77581 | 12583 ft | 314 kts | 117° |
| 2026-05-09 02:04 | -5.56290 | 106.79519 | 12190 ft | 311 kts | 116° |
| 2026-05-09 02:05 | -5.57283 | 106.81431 | 11846 ft | 308 kts | 116° |
| 2026-05-09 02:05 | -5.58276 | 106.83346 | 11499 ft | 311 kts | 116° |
| 2026-05-09 02:05 | -5.59281 | 106.85282 | 11126 ft | 316 kts | 116° |
| 2026-05-09 02:05 | -5.60307 | 106.87260 | 10743 ft | 321 kts | 116° |
| 2026-05-09 02:06 | -5.61336 | 106.89243 | 10458 ft | 316 kts | 116° |
| 2026-05-09 02:06 | -5.62332 | 106.91161 | 10293 ft | 304 kts | 116° |
| 2026-05-09 02:06 | -5.63291 | 106.93009 | 10161 ft | 293 kts | 116° |
| 2026-05-09 02:07 | -5.65097 | 106.96488 | 9987 ft | 270 kts | 116° |
| 2026-05-09 02:07 | -5.65958 | 106.98148 | 9735 ft | 267 kts | 116° |
| 2026-05-09 02:07 | -5.66818 | 106.99790 | 9462 ft | 264 kts | 120° |
| 2026-05-09 02:07 | -5.68076 | 107.01114 | 9166 ft | 265 kts | 147° |
| 2026-05-09 02:08 | -5.69795 | 107.01736 | 8908 ft | 265 kts | 170° |
| 2026-05-09 02:08 | -5.71637 | 107.01911 | 8644 ft | 269 kts | 175° |
| 2026-05-09 02:08 | -5.73535 | 107.02029 | 8358 ft | 277 kts | 175° |
| 2026-05-09 02:08 | -5.75471 | 107.02143 | 8067 ft | 278 kts | 175° |
| 2026-05-09 02:09 | -5.77392 | 107.02260 | 7774 ft | 275 kts | 175° |
| 2026-05-09 02:09 | -5.79291 | 107.02383 | 7489 ft | 272 kts | 175° |
| 2026-05-09 02:09 | -5.81174 | 107.02508 | 7207 ft | 270 kts | 175° |
| 2026-05-09 02:09 | -5.83039 | 107.02635 | 6931 ft | 268 kts | 174° |
| 2026-05-09 02:10 | -5.84889 | 107.02764 | 6659 ft | 265 kts | 174° |
| 2026-05-09 02:10 | -5.86723 | 107.02892 | 6388 ft | 263 kts | 174° |
| 2026-05-09 02:10 | -5.88544 | 107.03019 | 6101 ft | 261 kts | 174° |
| 2026-05-09 02:10 | -5.90352 | 107.03147 | 5815 ft | 259 kts | 174° |
| 2026-05-09 02:11 | -5.92142 | 107.03272 | 5540 ft | 257 kts | 174° |
| 2026-05-09 02:11 | -5.93921 | 107.03398 | 5293 ft | 255 kts | 175° |
| 2026-05-09 02:11 | -5.95641 | 107.03175 | 5151 ft | 249 kts | 202° |
| 2026-05-09 02:11 | -5.96993 | 107.02183 | 5051 ft | 243 kts | 228° |
| 2026-05-09 02:12 | -5.97996 | 107.00794 | 4965 ft | 245 kts | 237° |
| 2026-05-09 02:12 | -5.98902 | 106.99355 | 4861 ft | 246 kts | 237° |
| 2026-05-09 02:12 | -5.99801 | 106.97926 | 4735 ft | 239 kts | 237° |
| 2026-05-09 02:12 | -6.00691 | 106.96532 | 4514 ft | 236 kts | 237° |
| 2026-05-09 02:13 | -6.01577 | 106.95155 | 4284 ft | 234 kts | 237° |
| 2026-05-09 02:13 | -6.02451 | 106.93794 | 4120 ft | 227 kts | 238° |
| 2026-05-09 02:13 | -6.03119 | 106.92421 | 4047 ft | 211 kts | 248° |
| 2026-05-09 02:13 | -6.03621 | 106.91098 | 4016 ft | 195 kts | 249° |
| 2026-05-09 02:14 | -6.04109 | 106.89845 | 4024 ft | 190 kts | 248° |
| 2026-05-09 02:14 | -6.04603 | 106.88601 | 3877 ft | 194 kts | 248° |
| 2026-05-09 02:14 | -6.05105 | 106.87342 | 3707 ft | 192 kts | 248° |
| 2026-05-09 02:14 | -6.05597 | 106.86107 | 3546 ft | 190 kts | 248° |
| 2026-05-09 02:15 | -6.06088 | 106.84873 | 3377 ft | 190 kts | 248° |
| 2026-05-09 02:15 | -6.06577 | 106.83644 | 3217 ft | 190 kts | 248° |
| 2026-05-09 02:15 | -6.07063 | 106.82424 | 3056 ft | 187 kts | 248° |
| 2026-05-09 02:15 | -6.07548 | 106.81206 | 2831 ft | 189 kts | 248° |
| 2026-05-09 02:16 | -6.08032 | 106.79989 | 2599 ft | 186 kts | 248° |
| 2026-05-09 02:16 | -6.08496 | 106.78824 | 2357 ft | 173 kts | 248° |
| 2026-05-09 02:16 | -6.08930 | 106.77732 | 2136 ft | 162 kts | 248° |
| 2026-05-09 02:16 | -6.09335 | 106.76717 | 1951 ft | 154 kts | 248° |
| 2026-05-09 02:17 | -6.09724 | 106.75738 | 1755 ft | 150 kts | 247° |
| 2026-05-09 02:17 | -6.10112 | 106.74764 | 1565 ft | 151 kts | 248° |
| 2026-05-09 02:17 | -6.10502 | 106.73784 | 1375 ft | 151 kts | 247° |
| 2026-05-09 02:17 | -6.10890 | 106.72810 | 1184 ft | 149 kts | 247° |
| 2026-05-09 02:18 | -6.11278 | 106.71837 | 979 ft | 150 kts | 247° |
| 2026-05-09 02:18 | -6.11685 | 106.70874 | 867 ft | 152 kts | 246° |
| 2026-05-09 02:18 | -6.12088 | 106.69898 | 650 ft | 152 kts | 246° |
| 2026-05-09 02:18 | -6.12429 | 106.68909 | 407 ft | 150 kts | 251° |
| 2026-05-09 02:19 | -6.12804 | 106.67963 | 215 ft | 143 kts | 244° |
| 2026-05-09 02:19 | -6.13183 | 106.67044 | 62 ft | 142 kts | 247° |
| 2026-05-09 02:19 | -6.13514 | 106.66220 | 40 ft | 111 kts | 249° |
| 2026-05-09 02:19 | -6.13704 | 106.65741 | 37 ft | 33 kts | 249° |
| 2026-05-09 02:20 | -6.13755 | 106.65548 | 38 ft | 19 kts | 266° |
| 2026-05-09 02:20 | -6.13750 | 106.65442 | 39 ft | 10 kts | 277° |
| 2026-05-09 02:20 | -6.13742 | 106.65387 | 36 ft | 0 kts | 282° |
| 2026-05-09 02:20 | -6.13740 | 106.65381 | 37 ft | 2 kts | 294° |
| 2026-05-09 02:21 | -6.13728 | 106.65365 | 39 ft | 3 kts | 313° |
| 2026-05-09 02:21 | -6.13723 | 106.65361 | 39 ft | 1 kts | 317° |
| 2026-05-09 02:21 | -6.13707 | 106.65354 | 39 ft | 4 kts | 345° |
| 2026-05-09 02:21 | -6.13677 | 106.65358 | 38 ft | 5 kts | 24° |
| 2026-05-09 02:22 | -6.13651 | 106.65390 | 38 ft | 7 kts | 64° |
| 2026-05-09 02:22 | -6.13631 | 106.65439 | 38 ft | 9 kts | 69° |
| 2026-05-09 02:22 | -6.13604 | 106.65508 | 37 ft | 12 kts | 69° |
| 2026-05-09 02:22 | -6.13572 | 106.65587 | 37 ft | 13 kts | 69° |
| 2026-05-09 02:23 | -6.13539 | 106.65671 | 35 ft | 13 kts | 68° |
| 2026-05-09 02:23 | -6.13505 | 106.65758 | 37 ft | 13 kts | 67° |
| 2026-05-09 02:23 | -6.13473 | 106.65833 | 37 ft | 12 kts | 67° |
| 2026-05-09 02:23 | -6.13441 | 106.65914 | 37 ft | 13 kts | 66° |
| 2026-05-09 02:24 | -6.13407 | 106.65999 | 37 ft | 13 kts | 69° |
| 2026-05-09 02:24 | -6.13373 | 106.66085 | 38 ft | 14 kts | 69° |
| 2026-05-09 02:24 | -6.13336 | 106.66178 | 36 ft | 15 kts | 69° |
| 2026-05-09 02:24 | -6.13300 | 106.66261 | 38 ft | 9 kts | 52° |
| 2026-05-09 02:25 | -6.13238 | 106.66267 | 38 ft | 9 kts | 339° |
| 2026-05-09 02:25 | -6.13175 | 106.66243 | 37 ft | 10 kts | 339° |
| 2026-05-09 02:25 | -6.13104 | 106.66215 | 37 ft | 12 kts | 339° |
| 2026-05-09 02:25 | -6.13025 | 106.66182 | 36 ft | 13 kts | 333° |
| 2026-05-09 02:26 | -6.13003 | 106.66125 | 37 ft | 9 kts | 255° |
| 2026-05-09 02:26 | -6.13024 | 106.66072 | 36 ft | 2 kts | 249° |
| 2026-05-09 02:26 | -6.13028 | 106.66060 | 36 ft | 2 kts | 252° |
| 2026-05-09 02:26 | -6.13032 | 106.66038 | 37 ft | 4 kts | 269° |
| 2026-05-09 02:27 | -6.13018 | 106.66014 | 36 ft | 5 kts | 313° |
| 2026-05-09 02:27 | -6.12993 | 106.65991 | 37 ft | 3 kts | 319° |
| 2026-05-09 02:27 | -6.12978 | 106.65978 | 35 ft | 3 kts | 319° |
| 2026-05-09 02:27 | -6.12974 | 106.65974 | 36 ft | 0 kts | 319° |